News

Home | Market | News | Company News

Company News

You can view Company News . Click on the news headline to get more details.
Date and TimeHeadlines
28/05/2022  - 19:20 Ganesh Benzoplas posts Q4 net profit of Rs 8.00 cr
28/05/2022  - 19:20 IFB Industries posts Q4 net loss of Rs 28.52 cr
28/05/2022  - 19:00 Reliance Com posts Q4 net loss of Rs 1477.00 cr
28/05/2022  - 18:50 Patels Airtemp Q4 net profit up 7.31% at Rs 3.23 cr
28/05/2022  - 18:50 Arrow Greentech posts Q4 net loss of Rs 2.28 cr
28/05/2022  - 18:50 Nandan Denim Q4 net profit up 1.11% at Rs 15.43 cr
28/05/2022  - 18:50 Paramount Commun Q4 net profit jumps 88.76% at Rs 4.87 cr
28/05/2022  - 18:50 RDB Rasayans Q4 net profit jumps 48.94% at Rs 4.90 cr
28/05/2022  - 18:50 Investment & Pre posts Q4 net loss of Rs 0.83 cr
28/05/2022  - 18:50 Response Informatics posts Q4 net loss of Rs 0.50 cr
28/05/2022  - 18:50 Prithvi Exchange Q4 net profit jumps 45.00% at Rs 0.29 cr
28/05/2022  - 18:50 Laffans Petro. posts Q4 net loss of Rs 3.05 cr
28/05/2022  - 18:50 Mrs. Bectors Food Sp Q4 net profit down 27.46% at Rs 8.27 cr
28/05/2022  - 18:50 Freshtrop Fruits Q4 net profit down 32.17% at Rs 3.10 cr
28/05/2022  - 18:50 B&A posts Q4 net loss of Rs 16.50 cr
28/05/2022  - 18:50 Godawari Power & Isp Q4 net profit up 18.27% at Rs 359.47 cr
28/05/2022  - 18:40 HUDCO Q4 net profit jumps 41.91% at Rs 746.90 cr
28/05/2022  - 18:30 Finolex Cables Q4 net profit up 8.87% at Rs 104.60 cr
28/05/2022  - 18:30 Edelweiss Fin. Ser Q4 net profit down 59.45% at Rs 339.56 cr
28/05/2022  - 18:21 IFGL Refractories posts Q4 net profit of Rs 15.66 cr
28/05/2022  - 18:21 Lahoti Overseas Q4 net profit zooms 365.05% at Rs 8.65 cr
28/05/2022  - 18:21 Cella Space posts Q4 net profit of Rs 1.45 cr
28/05/2022  - 18:20 Riba Textiles Li Q4 net profit zooms 262.86% at Rs 1.27 cr
28/05/2022  - 18:20 Kakatiya Textile Q4 net profit zooms 257.30% at Rs 3.18 cr
28/05/2022  - 18:20 B C Power Controls L posts Q4 net loss of Rs 0.88 cr
28/05/2022  - 18:20 Purity Flex Pack Q4 net profit down 64.29% at Rs 1.15 cr
28/05/2022  - 18:20 Bajaj Steel Ind. Q4 net profit down 82.54% at Rs 4.80 cr
28/05/2022  - 18:20 Alfa Transformer posts Q4 net loss of Rs 0.62 cr
28/05/2022  - 18:20 Everest Organics Q4 net profit down 86.82% at Rs 0.29 cr
28/05/2022  - 18:20 Narmada Gelatines Lt Q4 net profit zooms 103.49% at Rs 3.50 cr
28/05/2022  - 18:20 Guj. Amb.Exports Q4 net profit up 29.45% at Rs 153.30 cr
28/05/2022  - 18:20 Autoline Industries Q4 net profit zooms 428.65% at Rs 9.41 cr
28/05/2022  - 18:10 Bengal & Assam Compa Q4 net profit down 72.42% at Rs 4.52 cr
28/05/2022  - 18:10 TCI Q4 net profit up 38.29% at Rs 73.10 cr
28/05/2022  - 18:00 Faze Three Ltd. has declared 5% Interim dividend for the financial year...
28/05/2022  - 18:00 PNC Infratech Q4 net profit up 6.82% at Rs 138.21 cr
28/05/2022  - 17:50 Rajasthan Tube Q4 net profit jumps 50.00% at Rs 0.03 cr
28/05/2022  - 17:50 Bloom Dekor posts Q4 net loss of Rs 3.82 cr
28/05/2022  - 17:50 Polo Queen Industria Q4 net profit zooms 2250.00% at Rs 0.47 cr
28/05/2022  - 17:50 Zenith Exports L Q4 net profit zooms 238.24% at Rs 1.15 cr
28/05/2022  - 17:50 Indo Tech Transforme Q4 net profit down 55.64% at Rs 6.06 cr
28/05/2022  - 17:50 Cybele Industries Lt posts Q4 net profit of Rs 0.01 cr
28/05/2022  - 17:50 Maitri Enterprises posts Q4 net profit of Rs 0.02 cr
28/05/2022  - 17:50 Uflex Q4 net profit jumps 45.26% at Rs 83.25 cr
28/05/2022  - 17:50 Hawa Engineers L Q4 net profit down 26.00% at Rs 0.37 cr
28/05/2022  - 17:50 D & H India Q4 net profit zooms 340.00% at Rs 1.10 cr
28/05/2022  - 17:50 LGB Forge Q4 net profit down 80.47% at Rs 0.25 cr
28/05/2022  - 17:50 Jetking Infotrain Lt Q4 net profit jumps 82.81% at Rs 1.17 cr
28/05/2022  - 17:50 Bharat Parentera Q4 net profit zooms 107.14% at Rs 4.06 cr
28/05/2022  - 17:50 Harrisons Malaya Q4 net profit down 54.22% at Rs 7.92 cr
28/05/2022  - 17:41 Godfrey Phillips Ind Q4 net profit up 8.88% at Rs 103.90 cr
28/05/2022  - 17:30 Kama Holdings Q4 net profit up 21.01% at Rs 70.27 cr
28/05/2022  - 17:30 Mahi. & Mahi Q4 net profit zooms 2567.09% at Rs 1291.94 cr
28/05/2022  - 17:20 Marg Projects and In has submitted to BSE the Shareholding Pattern for ...
28/05/2022  - 17:20 ABM Knowledgeware Q4 net profit down 30.17% at Rs 2.43 cr
28/05/2022  - 17:20 Munjal Auto Industr. Q4 net profit down 33.09% at Rs 8.35 cr
28/05/2022  - 17:10 Marg Projects and In has submitted to BSE the Shareholding Pattern for ...
28/05/2022  - 17:10 ISGEC Heavy Eng Q4 net profit down 52.25% at Rs 35.21 cr
28/05/2022  - 17:10 Responsive Industrie Q4 net profit zooms 133.77% at Rs 1.80 cr
28/05/2022  - 16:50 Choksi Lab. Ltd posts Q4 net profit of Rs 2.24 cr
28/05/2022  - 16:50 Raja Bahadur Interna posts Q4 net loss of Rs 0.17 cr
28/05/2022  - 16:50 Zenith Fibres Q4 net profit up 15.00% at Rs 0.46 cr
28/05/2022  - 16:50 Lambodhara Texti Q4 net profit down 43.76% at Rs 3.65 cr
28/05/2022  - 16:50 Hisar Metal Indu Q4 net profit jumps 94.12% at Rs 4.62 cr
28/05/2022  - 16:50 Kkalpana lndustries Q4 net profit down 73.28% at Rs 3.34 cr
28/05/2022  - 16:50 Nitin Castings Q4 net profit up 23.13% at Rs 1.65 cr
28/05/2022  - 16:50 W H Brady & Co. Q4 net profit zooms 128.57% at Rs 0.80 cr
28/05/2022  - 16:50 United Van Der Q4 net profit down 91.16% at Rs 0.13 cr
28/05/2022  - 16:50 Star Delta Trans posts Q4 net profit of Rs 2.17 cr
28/05/2022  - 16:50 Triochem Product posts Q4 net profit of Rs 0.63 cr
28/05/2022  - 16:50 Madhav Marbles & Gra Q4 net profit down 99.17% at Rs 0.01 cr
28/05/2022  - 16:50 Prozone Intu Propert posts Q4 net profit of Rs 1.78 cr
28/05/2022  - 16:40 Ion Exchange (India) Q4 net profit up 5.40% at Rs 66.22 cr
28/05/2022  - 16:10 CJ Gelatine Q4 net profit zooms 166.67% at Rs 0.16 cr
28/05/2022  - 16:10 Saffron Industries L posts Q4 net loss of Rs 0.22 cr
28/05/2022  - 16:10 Indo Euro Indchem posts Q4 net loss of Rs 0.33 cr
28/05/2022  - 16:10 Rodium Realty L posts Q4 net profit of Rs 0.74 cr
28/05/2022  - 16:10 Medico Intercontinen Q4 net profit up 20.00% at Rs 0.30 cr
28/05/2022  - 16:10 Phaarmasia posts Q4 net loss of Rs 0.15 cr
28/05/2022  - 16:10 ARSS Infrastructure posts Q4 net loss of Rs 77.51 cr
28/05/2022  - 16:10 Bhagyanagar India Lt posts Q4 net profit of Rs 1.64 cr
28/05/2022  - 16:10 Universal Starch Q4 net profit jumps 63.77% at Rs 4.52 cr
28/05/2022  - 15:50 Bright Brothers Q4 net profit down 83.82% at Rs 0.55 cr
28/05/2022  - 15:50 VMS Industries posts Q4 net loss of Rs 0.15 cr
28/05/2022  - 15:50 Kay Power And Paper Q4 net profit up 9.52% at Rs 0.69 cr
28/05/2022  - 15:50 STL Global Q4 net profit down 96.67% at Rs 1.23 cr
28/05/2022  - 15:50 Ambika Cotton Mi Q4 net profit jumps 61.20% at Rs 46.70 cr
28/05/2022  - 15:50 Jattashankar Indust Q4 net profit jumps 58.33% at Rs 0.19 cr
28/05/2022  - 15:50 Texel Industries posts Q4 net loss of Rs 0.51 cr
28/05/2022  - 15:50 Southern Gas posts Q4 net loss of Rs 0.28 cr
28/05/2022  - 15:50 Milestone Global posts Q4 net loss of Rs 0.10 cr
28/05/2022  - 15:50 Coromandel Agro Q4 net profit down 88.10% at Rs 0.82 cr
28/05/2022  - 15:50 Alphageo (India) Q4 net profit down 55.89% at Rs 7.38 cr
28/05/2022  - 15:50 Sakuma Exports Q4 net profit zooms 346.40% at Rs 9.91 cr
28/05/2022  - 15:50 Jasch Industries Q4 net profit up 30.22% at Rs 6.42 cr
28/05/2022  - 15:50 Capacit'e Infraproje Q4 net profit down 57.24% at Rs 10.43 cr
28/05/2022  - 15:50 KM Sugar Mills Q4 net profit up 11.58% at Rs 6.84 cr
28/05/2022  - 15:40 Ras Resorts Q4 net profit zooms 233.33% at Rs 0.10 cr
28/05/2022  - 15:40 Black Box posts Q4 net loss of Rs 4.50 cr
28/05/2022  - 15:31 CNI Research posts Q4 net profit of Rs 0.37 cr

TRADEWELL SECURITIES LIMITED
CORPORATE MEMBER OF BOMBAY STOCK EXCHANGE OF INDIA LTD  |  MEMBER ID : 3187  |  NATIONAL STOCK EXCHANGE OF INDIA LTD  |  MEMBER ID: 12835>  |  MULTI COMMODITY EXCHANGE OF INDIA LTD  |  MEMBER ID: 56265
SEGMENTS: BSE CASH  |  BSE STAR MF  |  NSE CASH  |  NSE FO  |  NSE CD  |  NSE MF
SEBI REGN NO. INZ000171936
AMFI ARN CODE: 111875
CDSL DP ID NO. : 12052700 DP SEBI REG.NO.IN-DP-CDSL-432-2007
NSE | BSE | RBI | SEBI | CDSL | MCX | AMFI | SCORES

ATTENTION INVESTORS "Prevent Unauthorised transactions in your account --> Update your mobile numbers/email IDs with us. Receive information of your transactions directly from Exchange on your mobile/email at the end of the day.......... Issued in the interest of investors". "Prevent Unauthorized Transactions in your demat account --> Update your Mobile Number with us. Receive alerts on your Registered Mobile for all debit and other important transactions in your demat account directly from CDSL on the same day.......... Issued in the interest of investors". "KYC is one time exercise while dealing in securities markets - once KYC is done through a SEBI registered intermediary (broker, DP, Mutual Fund etc.), you need not undergo the same process again when you approach another intermediary".

(Note : Best viewed in 1024 X 768 and above resolution also in IE 9 and above all higher versions.)


Copyright © 2015 Tradewell Securities Limited. All rights reserved.

Designed, developed and content provided by dion

SMS Registration

Submit Clear

Mobile Trading

Segment

Submit Clear

logo

Submit Clear

Investors Grievances

igtsl@tradewellmail.com

Invest By QFI

QFI's Can now invest in Indian Capital Markets Through Tradewell Securities ltd -
For details Contact
Mr K.Brahmaiah - 9246399440/040-23541258.

CLIENT LOGIN

NOTES:

FRANCHISEE LOGIN

NOTES:

INTERNET TRADING

NOTES: